sensor_id;sensor_type;location;lat;lon;timestamp;pressure;altitude;pressure_sealevel;temperature;humidity
53246;BME280;39569;51.090;-1.786;2023-09-19T00:00:07;100198.72;;;21.90;46.48
53246;BME280;39569;51.090;-1.786;2023-09-19T00:02:34;100197.22;;;21.78;46.73
53246;BME280;39569;51.090;-1.786;2023-09-19T00:05:02;100194.53;;;21.46;47.58
53246;BME280;39569;51.090;-1.786;2023-09-19T00:07:29;100195.84;;;20.47;49.96
53246;BME280;39569;51.090;-1.786;2023-09-19T00:09:55;100190.34;;;21.65;47.26
53246;BME280;39569;51.090;-1.786;2023-09-19T00:12:22;100193.09;;;21.70;47.41
53246;BME280;39569;51.090;-1.786;2023-09-19T00:14:49;100199.56;;;21.32;48.24
53246;BME280;39569;51.090;-1.786;2023-09-19T00:17:18;100195.25;;;22.00;46.33
53246;BME280;39569;51.090;-1.786;2023-09-19T00:19:45;100197.56;;;20.75;49.58
53246;BME280;39569;51.090;-1.786;2023-09-19T00:22:11;100202.22;;;20.79;49.38
53246;BME280;39569;51.090;-1.786;2023-09-19T00:24:41;100195.69;;;21.55;47.87
53246;BME280;39569;51.090;-1.786;2023-09-19T00:27:08;100203.63;;;21.62;47.35
53246;BME280;39569;51.090;-1.786;2023-09-19T00:29:34;100202.47;;;21.52;47.77
53246;BME280;39569;51.090;-1.786;2023-09-19T00:32:01;100214.78;;;21.33;48.36
53246;BME280;39569;51.090;-1.786;2023-09-19T00:34:31;100210.56;;;22.11;46.39
53246;BME280;39569;51.090;-1.786;2023-09-19T00:36:59;100217.66;;;22.12;46.52
53246;BME280;39569;51.090;-1.786;2023-09-19T00:39:26;100211.47;;;22.26;46.00
53246;BME280;39569;51.090;-1.786;2023-09-19T00:41:53;100209.06;;;22.35;45.50
53246;BME280;39569;51.090;-1.786;2023-09-19T00:44:20;100217.47;;;22.28;45.73
53246;BME280;39569;51.090;-1.786;2023-09-19T00:46:48;100203.59;;;21.57;46.79
53246;BME280;39569;51.090;-1.786;2023-09-19T00:49:15;100208.16;;;21.83;46.46
53246;BME280;39569;51.090;-1.786;2023-09-19T00:51:44;100209.44;;;22.07;46.22
53246;BME280;39569;51.090;-1.786;2023-09-19T00:54:13;100205.22;;;21.84;46.58
53246;BME280;39569;51.090;-1.786;2023-09-19T00:56:44;100205.09;;;21.74;46.42
53246;BME280;39569;51.090;-1.786;2023-09-19T00:59:11;100203.31;;;22.26;45.71
53246;BME280;39569;51.090;-1.786;2023-09-19T01:01:38;100200.63;;;22.36;45.25
53246;BME280;39569;51.090;-1.786;2023-09-19T01:04:06;100206.78;;;22.17;45.69
53246;BME280;39569;51.090;-1.786;2023-09-19T01:06:33;100205.66;;;21.76;46.84
53246;BME280;39569;51.090;-1.786;2023-09-19T01:09:01;100197.16;;;22.46;45.17
53246;BME280;39569;51.090;-1.786;2023-09-19T01:11:33;100193.00;;;22.85;44.53
53246;BME280;39569;51.090;-1.786;2023-09-19T01:14:14;100196.31;;;23.02;43.93
53246;BME280;39569;51.090;-1.786;2023-09-19T01:16:48;100191.69;;;22.41;45.26
53246;BME280;39569;51.090;-1.786;2023-09-19T01:22:28;100189.56;;;22.53;45.27
53246;BME280;39569;51.090;-1.786;2023-09-19T01:25:34;100190.22;;;21.23;48.44
53246;BME280;39569;51.090;-1.786;2023-09-19T01:28:20;100184.25;;;21.85;47.40
53246;BME280;39569;51.090;-1.786;2023-09-19T01:30:57;100196.84;;;21.64;48.08
53246;BME280;39569;51.090;-1.786;2023-09-19T01:33:25;100182.91;;;21.56;47.70
53246;BME280;39569;51.090;-1.786;2023-09-19T01:35:52;100184.66;;;22.55;45.50
53246;BME280;39569;51.090;-1.786;2023-09-19T01:38:23;100184.81;;;22.28;46.53
53246;BME280;39569;51.090;-1.786;2023-09-19T01:40:58;100182.75;;;21.99;46.13
53246;BME280;39569;51.090;-1.786;2023-09-19T01:43:34;100179.00;;;22.57;45.54
53246;BME280;39569;51.090;-1.786;2023-09-19T01:46:09;100187.34;;;21.98;46.72
53246;BME280;39569;51.090;-1.786;2023-09-19T01:48:42;100177.78;;;22.32;46.14
53246;BME280;39569;51.090;-1.786;2023-09-19T01:51:14;100171.69;;;22.67;45.30
53246;BME280;39569;51.090;-1.786;2023-09-19T01:53:51;100171.63;;;22.57;45.73
53246;BME280;39569;51.090;-1.786;2023-09-19T01:56:27;100176.06;;;21.80;47.18
53246;BME280;39569;51.090;-1.786;2023-09-19T01:58:57;100183.16;;;21.81;47.38
53246;BME280;39569;51.090;-1.786;2023-09-19T02:01:27;100174.97;;;22.74;45.52
53246;BME280;39569;51.090;-1.786;2023-09-19T02:03:54;100176.69;;;23.10;44.25
53246;BME280;39569;51.090;-1.786;2023-09-19T02:06:22;100167.06;;;22.68;45.39
53246;BME280;39569;51.090;-1.786;2023-09-19T02:08:50;100176.00;;;22.58;45.39
53246;BME280;39569;51.090;-1.786;2023-09-19T02:11:17;100176.88;;;22.74;45.22
53246;BME280;39569;51.090;-1.786;2023-09-19T02:13:44;100180.41;;;22.69;45.61
53246;BME280;39569;51.090;-1.786;2023-09-19T02:16:11;100180.09;;;21.77;47.89
53246;BME280;39569;51.090;-1.786;2023-09-19T02:18:39;100180.06;;;22.09;46.79
53246;BME280;39569;51.090;-1.786;2023-09-19T02:21:06;100175.09;;;21.96;47.96
53246;BME280;39569;51.090;-1.786;2023-09-19T02:23:35;100175.16;;;22.53;46.43
53246;BME280;39569;51.090;-1.786;2023-09-19T02:26:02;100173.69;;;22.40;46.49
53246;BME280;39569;51.090;-1.786;2023-09-19T02:28:29;100170.22;;;21.98;47.68
53246;BME280;39569;51.090;-1.786;2023-09-19T02:30:57;100170.09;;;22.24;47.14
53246;BME280;39569;51.090;-1.786;2023-09-19T02:33:24;100156.63;;;21.66;48.94
53246;BME280;39569;51.090;-1.786;2023-09-19T02:35:56;100152.91;;;21.77;48.52
53246;BME280;39569;51.090;-1.786;2023-09-19T02:38:23;100155.72;;;22.34;47.49
53246;BME280;39569;51.090;-1.786;2023-09-19T02:40:51;100150.56;;;22.32;47.42
53246;BME280;39569;51.090;-1.786;2023-09-19T02:43:18;100156.16;;;22.11;48.16
53246;BME280;39569;51.090;-1.786;2023-09-19T02:45:46;100148.53;;;22.13;48.42
53246;BME280;39569;51.090;-1.786;2023-09-19T02:48:15;100142.16;;;22.44;47.84
53246;BME280;39569;51.090;-1.786;2023-09-19T02:50:42;100139.41;;;22.34;47.89
53246;BME280;39569;51.090;-1.786;2023-09-19T02:53:11;100130.56;;;22.64;47.09
53246;BME280;39569;51.090;-1.786;2023-09-19T02:55:39;100134.44;;;22.93;46.49
53246;BME280;39569;51.090;-1.786;2023-09-19T02:58:07;100131.75;;;22.31;47.76
53246;BME280;39569;51.090;-1.786;2023-09-19T03:00:36;100125.47;;;22.20;48.46
53246;BME280;39569;51.090;-1.786;2023-09-19T03:03:04;100128.25;;;22.35;48.38
53246;BME280;39569;51.090;-1.786;2023-09-19T03:05:31;100121.03;;;22.66;47.60
53246;BME280;39569;51.090;-1.786;2023-09-19T03:07:58;100121.63;;;22.78;47.35
53246;BME280;39569;51.090;-1.786;2023-09-19T03:10:27;100118.34;;;22.81;47.29
53246;BME280;39569;51.090;-1.786;2023-09-19T03:12:55;100116.22;;;23.08;46.46
53246;BME280;39569;51.090;-1.786;2023-09-19T03:15:21;100123.16;;;22.54;47.72
53246;BME280;39569;51.090;-1.786;2023-09-19T03:17:49;100129.47;;;22.70;47.12
53246;BME280;39569;51.090;-1.786;2023-09-19T03:20:17;100110.47;;;22.90;46.59
53246;BME280;39569;51.090;-1.786;2023-09-19T03:22:44;100111.84;;;23.12;46.84
53246;BME280;39569;51.090;-1.786;2023-09-19T03:25:11;100108.31;;;23.07;46.79
53246;BME280;39569;51.090;-1.786;2023-09-19T03:27:40;100114.91;;;23.36;46.19
53246;BME280;39569;51.090;-1.786;2023-09-19T03:30:07;100110.81;;;23.33;46.45
53246;BME280;39569;51.090;-1.786;2023-09-19T03:32:34;100117.84;;;23.04;46.85
53246;BME280;39569;51.090;-1.786;2023-09-19T03:35:02;100110.25;;;23.31;46.60
53246;BME280;39569;51.090;-1.786;2023-09-19T03:37:30;100112.66;;;22.88;47.62
53246;BME280;39569;51.090;-1.786;2023-09-19T03:39:57;100110.78;;;23.18;47.40
53246;BME280;39569;51.090;-1.786;2023-09-19T03:42:24;100107.53;;;23.36;46.79
53246;BME280;39569;51.090;-1.786;2023-09-19T03:44:53;100091.72;;;23.08;47.51
53246;BME280;39569;51.090;-1.786;2023-09-19T03:47:21;100093.59;;;23.78;46.25
53246;BME280;39569;51.090;-1.786;2023-09-19T03:49:48;100075.88;;;23.71;46.41
53246;BME280;39569;51.090;-1.786;2023-09-19T03:52:14;100070.34;;;23.91;46.29
53246;BME280;39569;51.090;-1.786;2023-09-19T03:54:42;100064.13;;;23.80;46.29
53246;BME280;39569;51.090;-1.786;2023-09-19T03:57:09;100056.44;;;23.92;46.01
53246;BME280;39569;51.090;-1.786;2023-09-19T03:59:35;100049.63;;;23.85;46.39
53246;BME280;39569;51.090;-1.786;2023-09-19T04:02:04;100047.75;;;23.80;46.32
53246;BME280;39569;51.090;-1.786;2023-09-19T04:04:37;100051.25;;;23.91;46.31
53246;BME280;39569;51.090;-1.786;2023-09-19T04:07:03;100054.00;;;23.81;46.43
53246;BME280;39569;51.090;-1.786;2023-09-19T04:09:30;100050.19;;;23.92;46.36
53246;BME280;39569;51.090;-1.786;2023-09-19T04:11:57;100044.28;;;23.55;47.36
53246;BME280;39569;51.090;-1.786;2023-09-19T04:14:23;100050.28;;;23.16;48.56
53246;BME280;39569;51.090;-1.786;2023-09-19T04:16:50;100043.22;;;23.30;48.33
53246;BME280;39569;51.090;-1.786;2023-09-19T04:19:19;100053.81;;;23.42;48.28
53246;BME280;39569;51.090;-1.786;2023-09-19T04:21:47;100050.28;;;23.06;49.44
53246;BME280;39569;51.090;-1.786;2023-09-19T04:24:14;100043.75;;;23.22;48.51
53246;BME280;39569;51.090;-1.786;2023-09-19T04:26:41;100050.81;;;23.49;48.36
53246;BME280;39569;51.090;-1.786;2023-09-19T04:29:09;100046.16;;;23.69;47.56
53246;BME280;39569;51.090;-1.786;2023-09-19T04:31:36;100036.31;;;23.78;47.80
53246;BME280;39569;51.090;-1.786;2023-09-19T04:34:05;100035.47;;;23.88;47.45
53246;BME280;39569;51.090;-1.786;2023-09-19T04:36:34;100047.25;;;23.63;48.36
53246;BME280;39569;51.090;-1.786;2023-09-19T04:39:02;100043.50;;;23.34;49.34
53246;BME280;39569;51.090;-1.786;2023-09-19T04:41:31;100033.66;;;22.83;50.48
53246;BME280;39569;51.090;-1.786;2023-09-19T04:43:58;100042.09;;;23.26;49.81
53246;BME280;39569;51.090;-1.786;2023-09-19T04:46:25;100036.38;;;22.78;51.23
53246;BME280;39569;51.090;-1.786;2023-09-19T04:48:51;100034.22;;;23.25;50.63
53246;BME280;39569;51.090;-1.786;2023-09-19T04:51:19;100029.28;;;23.22;50.21
53246;BME280;39569;51.090;-1.786;2023-09-19T04:53:47;100019.56;;;24.00;48.58
53246;BME280;39569;51.090;-1.786;2023-09-19T04:56:14;100026.31;;;23.44;49.77
53246;BME280;39569;51.090;-1.786;2023-09-19T04:58:41;100029.53;;;23.66;49.28
53246;BME280;39569;51.090;-1.786;2023-09-19T05:01:08;100041.00;;;23.27;49.89
53246;BME280;39569;51.090;-1.786;2023-09-19T05:03:37;100040.19;;;23.17;50.95
53246;BME280;39569;51.090;-1.786;2023-09-19T05:06:04;100036.38;;;23.13;50.64
53246;BME280;39569;51.090;-1.786;2023-09-19T05:08:31;100044.28;;;23.55;50.24
53246;BME280;39569;51.090;-1.786;2023-09-19T05:11:01;100034.75;;;23.27;50.44
53246;BME280;39569;51.090;-1.786;2023-09-19T05:13:28;100027.41;;;23.17;51.48
53246;BME280;39569;51.090;-1.786;2023-09-19T05:15:59;100029.41;;;23.96;49.81
53246;BME280;39569;51.090;-1.786;2023-09-19T05:18:27;100035.53;;;23.58;50.53
53246;BME280;39569;51.090;-1.786;2023-09-19T05:20:53;100020.69;;;23.94;49.95
53246;BME280;39569;51.090;-1.786;2023-09-19T05:23:21;100017.13;;;24.03;49.67
53246;BME280;39569;51.090;-1.786;2023-09-19T05:25:48;100036.66;;;22.86;52.14
53246;BME280;39569;51.090;-1.786;2023-09-19T05:28:16;100030.41;;;23.06;52.46
53246;BME280;39569;51.090;-1.786;2023-09-19T05:30:42;100036.38;;;23.28;51.90
53246;BME280;39569;51.090;-1.786;2023-09-19T05:33:09;100030.94;;;23.03;52.23
53246;BME280;39569;51.090;-1.786;2023-09-19T05:35:36;100036.09;;;23.24;51.60
53246;BME280;39569;51.090;-1.786;2023-09-19T05:38:05;100032.56;;;23.39;51.75
53246;BME280;39569;51.090;-1.786;2023-09-19T05:40:34;100022.09;;;23.81;50.24
53246;BME280;39569;51.090;-1.786;2023-09-19T05:43:01;100025.88;;;23.90;49.94
53246;BME280;39569;51.090;-1.786;2023-09-19T05:45:30;100020.88;;;24.22;49.58
53246;BME280;39569;51.090;-1.786;2023-09-19T05:48:07;100025.47;;;23.18;51.42
53246;BME280;39569;51.090;-1.786;2023-09-19T05:50:34;100026.00;;;22.65;53.27
53246;BME280;39569;51.090;-1.786;2023-09-19T05:53:01;100024.09;;;23.56;51.04
53246;BME280;39569;51.090;-1.786;2023-09-19T05:55:29;100011.25;;;22.45;53.97
53246;BME280;39569;51.090;-1.786;2023-09-19T05:57:56;100010.75;;;23.44;51.83
53246;BME280;39569;51.090;-1.786;2023-09-19T06:00:23;100011.78;;;23.68;50.81
53246;BME280;39569;51.090;-1.786;2023-09-19T06:02:55;100012.06;;;23.67;50.54
53246;BME280;39569;51.090;-1.786;2023-09-19T06:05:22;100012.56;;;23.74;51.12
53246;BME280;39569;51.090;-1.786;2023-09-19T06:07:50;100014.31;;;23.29;52.58
53246;BME280;39569;51.090;-1.786;2023-09-19T06:10:17;100010.25;;;23.12;52.85
53246;BME280;39569;51.090;-1.786;2023-09-19T06:12:46;99995.66;;;23.72;52.11
53246;BME280;39569;51.090;-1.786;2023-09-19T06:15:14;99999.22;;;23.72;51.94
53246;BME280;39569;51.090;-1.786;2023-09-19T06:17:42;99997.50;;;24.50;49.49
53246;BME280;39569;51.090;-1.786;2023-09-19T06:20:11;99990.38;;;24.54;49.84
53246;BME280;39569;51.090;-1.786;2023-09-19T06:22:40;99980.63;;;24.43;50.21
53246;BME280;39569;51.090;-1.786;2023-09-19T06:25:08;99986.75;;;24.64;49.69
53246;BME280;39569;51.090;-1.786;2023-09-19T06:27:37;99982.53;;;23.89;50.97
53246;BME280;39569;51.090;-1.786;2023-09-19T06:30:06;99983.31;;;24.04;51.26
53246;BME280;39569;51.090;-1.786;2023-09-19T06:32:33;99989.25;;;23.37;52.90
53246;BME280;39569;51.090;-1.786;2023-09-19T06:35:00;99982.44;;;23.30;53.49
53246;BME280;39569;51.090;-1.786;2023-09-19T06:37:29;99968.78;;;23.35;52.85
53246;BME280;39569;51.090;-1.786;2023-09-19T06:39:55;99977.53;;;24.11;51.42
53246;BME280;39569;51.090;-1.786;2023-09-19T06:42:23;99987.88;;;24.58;49.88
53246;BME280;39569;51.090;-1.786;2023-09-19T06:44:49;99972.84;;;24.60;50.12
53246;BME280;39569;51.090;-1.786;2023-09-19T06:47:16;99975.28;;;24.23;50.94
53246;BME280;39569;51.090;-1.786;2023-09-19T06:49:43;99972.25;;;23.61;52.19
53246;BME280;39569;51.090;-1.786;2023-09-19T06:52:10;99959.25;;;23.22;53.79
53246;BME280;39569;51.090;-1.786;2023-09-19T06:54:38;99966.63;;;24.11;52.04
53246;BME280;39569;51.090;-1.786;2023-09-19T06:57:07;99966.34;;;23.18;53.98
53246;BME280;39569;51.090;-1.786;2023-09-19T06:59:35;99972.09;;;22.82;54.97
53246;BME280;39569;51.090;-1.786;2023-09-19T07:02:02;99977.56;;;22.62;55.46
53246;BME280;39569;51.090;-1.786;2023-09-19T07:04:31;99974.22;;;23.45;53.62
53246;BME280;39569;51.090;-1.786;2023-09-19T07:06:58;99974.22;;;23.45;53.26
53246;BME280;39569;51.090;-1.786;2023-09-19T07:09:25;99970.16;;;23.37;53.71
53246;BME280;39569;51.090;-1.786;2023-09-19T07:11:54;99969.91;;;23.04;54.38
53246;BME280;39569;51.090;-1.786;2023-09-19T07:14:21;99977.28;;;22.83;54.42
53246;BME280;39569;51.090;-1.786;2023-09-19T07:16:48;99954.63;;;23.18;53.88
53246;BME280;39569;51.090;-1.786;2023-09-19T07:19:15;99955.50;;;23.97;52.33
53246;BME280;39569;51.090;-1.786;2023-09-19T07:21:41;99961.41;;;23.40;53.04
53246;BME280;39569;51.090;-1.786;2023-09-19T07:24:08;99960.56;;;23.60;52.23
53246;BME280;39569;51.090;-1.786;2023-09-19T07:26:35;99960.41;;;22.86;53.66
53246;BME280;39569;51.090;-1.786;2023-09-19T07:29:03;99953.59;;;24.42;50.50
53246;BME280;39569;51.090;-1.786;2023-09-19T07:31:32;99952.56;;;23.79;51.33
53246;BME280;39569;51.090;-1.786;2023-09-19T07:33:59;99954.03;;;24.54;50.27
53246;BME280;39569;51.090;-1.786;2023-09-19T07:36:25;99953.53;;;24.08;51.02
53246;BME280;39569;51.090;-1.786;2023-09-19T07:38:55;99955.75;;;24.45;50.67
53246;BME280;39569;51.090;-1.786;2023-09-19T07:41:23;99953.44;;;23.64;52.05
53246;BME280;39569;51.090;-1.786;2023-09-19T07:43:50;99962.81;;;23.38;52.60
53246;BME280;39569;51.090;-1.786;2023-09-19T07:46:18;99954.22;;;23.70;51.61
53246;BME280;39569;51.090;-1.786;2023-09-19T07:48:46;99954.56;;;23.53;52.34
53246;BME280;39569;51.090;-1.786;2023-09-19T07:51:14;99951.31;;;24.15;50.49
53246;BME280;39569;51.090;-1.786;2023-09-19T07:53:41;99960.38;;;23.06;53.64
53246;BME280;39569;51.090;-1.786;2023-09-19T07:56:09;99956.22;;;23.44;52.93
53246;BME280;39569;51.090;-1.786;2023-09-19T07:58:39;99947.66;;;23.76;52.51
53246;BME280;39569;51.090;-1.786;2023-09-19T08:01:10;99951.94;;;24.02;52.12
53246;BME280;39569;51.090;-1.786;2023-09-19T08:03:39;99953.34;;;23.89;52.56
53246;BME280;39569;51.090;-1.786;2023-09-19T08:06:07;99949.56;;;24.29;51.33
53246;BME280;39569;51.090;-1.786;2023-09-19T08:08:34;99961.19;;;22.72;55.84
53246;BME280;39569;51.090;-1.786;2023-09-19T08:11:03;99949.66;;;23.50;54.10
53246;BME280;39569;51.090;-1.786;2023-09-19T08:13:35;99942.75;;;24.31;52.25
53246;BME280;39569;51.090;-1.786;2023-09-19T08:16:03;99944.72;;;23.57;54.43
53246;BME280;39569;51.090;-1.786;2023-09-19T08:18:30;99936.84;;;23.56;54.64
53246;BME280;39569;51.090;-1.786;2023-09-19T08:20:58;99943.19;;;23.31;55.31
53246;BME280;39569;51.090;-1.786;2023-09-19T08:23:26;99951.34;;;24.05;53.60
53246;BME280;39569;51.090;-1.786;2023-09-19T08:25:56;99958.00;;;24.38;53.65
53246;BME280;39569;51.090;-1.786;2023-09-19T08:28:23;99957.06;;;24.52;52.10
53246;BME280;39569;51.090;-1.786;2023-09-19T08:30:50;99953.84;;;23.02;55.67
53246;BME280;39569;51.090;-1.786;2023-09-19T08:33:17;99949.47;;;24.00;52.92
53246;BME280;39569;51.090;-1.786;2023-09-19T08:35:45;99949.31;;;24.25;52.46
53246;BME280;39569;51.090;-1.786;2023-09-19T08:38:13;99945.91;;;24.00;52.56
53246;BME280;39569;51.090;-1.786;2023-09-19T08:40:40;99936.09;;;24.04;51.61
53246;BME280;39569;51.090;-1.786;2023-09-19T08:43:09;99943.03;;;24.30;50.88
53246;BME280;39569;51.090;-1.786;2023-09-19T08:45:36;99952.44;;;24.48;49.78
53246;BME280;39569;51.090;-1.786;2023-09-19T08:48:16;99953.94;;;23.76;52.16
53246;BME280;39569;51.090;-1.786;2023-09-19T08:50:49;99939.72;;;23.79;51.87
53246;BME280;39569;51.090;-1.786;2023-09-19T08:53:27;99953.25;;;24.09;51.69
53246;BME280;39569;51.090;-1.786;2023-09-19T08:55:59;99944.34;;;23.84;52.21
53246;BME280;39569;51.090;-1.786;2023-09-19T08:58:34;99936.19;;;24.71;50.84
53246;BME280;39569;51.090;-1.786;2023-09-19T09:01:07;99943.97;;;24.10;51.72
53246;BME280;39569;51.090;-1.786;2023-09-19T09:03:36;99947.47;;;24.93;51.17
53246;BME280;39569;51.090;-1.786;2023-09-19T09:06:05;99947.38;;;24.75;50.57
53246;BME280;39569;51.090;-1.786;2023-09-19T09:08:35;99952.44;;;24.09;52.01
53246;BME280;39569;51.090;-1.786;2023-09-19T09:11:02;99958.09;;;24.22;51.92
53246;BME280;39569;51.090;-1.786;2023-09-19T09:13:29;99947.63;;;23.86;53.11
53246;BME280;39569;51.090;-1.786;2023-09-19T09:15:56;99947.75;;;24.53;51.44
53246;BME280;39569;51.090;-1.786;2023-09-19T09:18:24;99956.03;;;23.94;52.54
53246;BME280;39569;51.090;-1.786;2023-09-19T09:20:51;99968.97;;;23.69;53.20
53246;BME280;39569;51.090;-1.786;2023-09-19T09:23:18;99957.59;;;23.36;54.01
53246;BME280;39569;51.090;-1.786;2023-09-19T09:25:49;99966.19;;;23.84;53.14
53246;BME280;39569;51.090;-1.786;2023-09-19T09:28:21;99957.25;;;23.73;53.44
53246;BME280;39569;51.090;-1.786;2023-09-19T09:30:48;99954.75;;;23.72;53.32
53246;BME280;39569;51.090;-1.786;2023-09-19T09:33:16;99962.53;;;24.52;51.89
53246;BME280;39569;51.090;-1.786;2023-09-19T09:35:51;99959.25;;;24.50;52.11
53246;BME280;39569;51.090;-1.786;2023-09-19T09:38:19;99948.97;;;24.37;52.50
53246;BME280;39569;51.090;-1.786;2023-09-19T09:40:49;99959.53;;;23.26;55.20
53246;BME280;39569;51.090;-1.786;2023-09-19T09:43:30;99961.69;;;23.29;55.56
53246;BME280;39569;51.090;-1.786;2023-09-19T09:46:14;99966.25;;;23.64;55.78
53246;BME280;39569;51.090;-1.786;2023-09-19T09:48:59;99961.94;;;23.53;55.78
53246;BME280;39569;51.090;-1.786;2023-09-19T09:51:45;99956.72;;;24.25;54.60
53246;BME280;39569;51.090;-1.786;2023-09-19T09:54:15;99955.09;;;23.60;55.87
53246;BME280;39569;51.090;-1.786;2023-09-19T09:56:57;99945.56;;;24.60;53.17
53246;BME280;39569;51.090;-1.786;2023-09-19T09:59:47;99953.19;;;24.92;53.38
53246;BME280;39569;51.090;-1.786;2023-09-19T10:02:16;99945.09;;;24.04;55.37
53246;BME280;39569;51.090;-1.786;2023-09-19T10:04:50;99942.38;;;25.10;53.08
53246;BME280;39569;51.090;-1.786;2023-09-19T10:07:36;99937.22;;;24.42;54.57
53246;BME280;39569;51.090;-1.786;2023-09-19T10:10:07;99936.28;;;25.18;52.41
53246;BME280;39569;51.090;-1.786;2023-09-19T10:12:46;99938.69;;;24.24;54.97
53246;BME280;39569;51.090;-1.786;2023-09-19T10:15:15;99933.72;;;24.31;55.14
53246;BME280;39569;51.090;-1.786;2023-09-19T10:17:44;99934.09;;;23.66;56.08
53246;BME280;39569;51.090;-1.786;2023-09-19T10:20:15;99939.00;;;23.64;55.95
53246;BME280;39569;51.090;-1.786;2023-09-19T10:22:59;99930.25;;;24.59;54.25
53246;BME280;39569;51.090;-1.786;2023-09-19T10:25:27;99922.28;;;24.68;53.88
53246;BME280;39569;51.090;-1.786;2023-09-19T10:27:57;99917.72;;;23.61;56.37
53246;BME280;39569;51.090;-1.786;2023-09-19T10:30:29;99937.69;;;23.46;56.37
53246;BME280;39569;51.090;-1.786;2023-09-19T10:33:02;99925.06;;;24.58;54.12
53246;BME280;39569;51.090;-1.786;2023-09-19T10:35:29;99930.31;;;24.88;52.81
53246;BME280;39569;51.090;-1.786;2023-09-19T10:37:59;99929.66;;;24.28;54.56
53246;BME280;39569;51.090;-1.786;2023-09-19T10:40:27;99940.78;;;24.37;54.41
53246;BME280;39569;51.090;-1.786;2023-09-19T10:43:03;99929.28;;;25.07;52.66
53246;BME280;39569;51.090;-1.786;2023-09-19T10:45:31;99926.59;;;24.74;53.19
53246;BME280;39569;51.090;-1.786;2023-09-19T10:47:58;99946.06;;;23.65;56.72
53246;BME280;39569;51.090;-1.786;2023-09-19T10:50:27;99940.06;;;24.21;54.92
53246;BME280;39569;51.090;-1.786;2023-09-19T10:53:00;99938.09;;;24.32;55.05
53246;BME280;39569;51.090;-1.786;2023-09-19T10:55:31;99952.50;;;23.89;56.14
53246;BME280;39569;51.090;-1.786;2023-09-19T10:58:02;99945.31;;;23.49;57.12
53246;BME280;39569;51.090;-1.786;2023-09-19T11:00:51;99946.03;;;23.70;57.43
53246;BME280;39569;51.090;-1.786;2023-09-19T11:03:19;99945.75;;;24.30;56.03
53246;BME280;39569;51.090;-1.786;2023-09-19T11:06:04;99957.34;;;23.28;58.85
53246;BME280;39569;51.090;-1.786;2023-09-19T11:08:56;99946.72;;;24.88;55.10
53246;BME280;39569;51.090;-1.786;2023-09-19T11:11:39;99937.50;;;23.86;57.28
53246;BME280;39569;51.090;-1.786;2023-09-19T11:14:29;99934.69;;;24.11;57.25
53246;BME280;39569;51.090;-1.786;2023-09-19T11:17:30;99938.91;;;23.84;57.36
53246;BME280;39569;51.090;-1.786;2023-09-19T11:20:30;99936.00;;;24.19;57.13
53246;BME280;39569;51.090;-1.786;2023-09-19T11:23:20;99943.44;;;24.86;55.57
53246;BME280;39569;51.090;-1.786;2023-09-19T11:25:56;99933.56;;;23.54;59.30
53246;BME280;39569;51.090;-1.786;2023-09-19T11:28:32;99938.41;;;24.25;57.44
53246;BME280;39569;51.090;-1.786;2023-09-19T11:31:34;99930.50;;;25.20;55.41
53246;BME280;39569;51.090;-1.786;2023-09-19T11:33:47;99934.91;;;24.92;55.62
53246;BME280;39569;51.090;-1.786;2023-09-19T11:36:15;99926.09;;;25.00;55.48
53246;BME280;39569;51.090;-1.786;2023-09-19T11:38:57;99929.72;;;24.57;57.08
53246;BME280;39569;51.090;-1.786;2023-09-19T11:41:39;99929.38;;;24.30;57.64
53246;BME280;39569;51.090;-1.786;2023-09-19T11:44:34;99916.66;;;24.88;56.84
53246;BME280;39569;51.090;-1.786;2023-09-19T11:47:08;99916.31;;;24.94;56.53
53246;BME280;39569;51.090;-1.786;2023-09-19T11:49:40;99912.38;;;24.43;57.87
53246;BME280;39569;51.090;-1.786;2023-09-19T11:52:08;99914.28;;;24.43;57.58
53246;BME280;39569;51.090;-1.786;2023-09-19T11:54:36;99928.78;;;24.72;56.79
53246;BME280;39569;51.090;-1.786;2023-09-19T11:57:07;99904.78;;;25.50;55.79
53246;BME280;39569;51.090;-1.786;2023-09-19T11:59:38;99905.22;;;25.09;56.14
53246;BME280;39569;51.090;-1.786;2023-09-19T12:02:07;99912.44;;;24.67;57.42
53246;BME280;39569;51.090;-1.786;2023-09-19T12:04:38;99910.53;;;25.24;55.88
53246;BME280;39569;51.090;-1.786;2023-09-19T12:07:07;99923.31;;;24.77;56.82
53246;BME280;39569;51.090;-1.786;2023-09-19T12:09:39;99918.94;;;24.76;56.77
53246;BME280;39569;51.090;-1.786;2023-09-19T12:12:06;99918.56;;;24.15;58.40
53246;BME280;39569;51.090;-1.786;2023-09-19T12:14:34;99919.63;;;24.19;57.73
53246;BME280;39569;51.090;-1.786;2023-09-19T12:17:01;99910.38;;;25.63;55.02
53246;BME280;39569;51.090;-1.786;2023-09-19T12:19:30;99895.81;;;24.92;57.33
53246;BME280;39569;51.090;-1.786;2023-09-19T12:21:58;99899.66;;;25.19;56.69
53246;BME280;39569;51.090;-1.786;2023-09-19T12:24:26;99908.34;;;24.98;57.63
53246;BME280;39569;51.090;-1.786;2023-09-19T12:27:00;99899.72;;;24.86;57.32
53246;BME280;39569;51.090;-1.786;2023-09-19T12:29:30;99904.34;;;25.38;56.36
53246;BME280;39569;51.090;-1.786;2023-09-19T12:31:58;99904.94;;;26.00;54.19
53246;BME280;39569;51.090;-1.786;2023-09-19T12:34:30;99915.97;;;25.95;54.58
53246;BME280;39569;51.090;-1.786;2023-09-19T12:37:10;99911.56;;;26.69;52.48
53246;BME280;39569;51.090;-1.786;2023-09-19T12:39:46;99929.41;;;25.50;54.95
53246;BME280;39569;51.090;-1.786;2023-09-19T12:42:16;99913.94;;;25.35;55.58
53246;BME280;39569;51.090;-1.786;2023-09-19T12:44:44;99923.09;;;25.73;55.12
53246;BME280;39569;51.090;-1.786;2023-09-19T12:47:13;99924.38;;;25.57;54.72
53246;BME280;39569;51.090;-1.786;2023-09-19T12:50:11;99937.44;;;25.12;56.45
53246;BME280;39569;51.090;-1.786;2023-09-19T12:52:44;99927.34;;;24.84;56.61
53246;BME280;39569;51.090;-1.786;2023-09-19T12:55:26;99914.16;;;25.67;55.12
53246;BME280;39569;51.090;-1.786;2023-09-19T12:57:58;99926.75;;;24.87;56.66
53246;BME280;39569;51.090;-1.786;2023-09-19T13:00:34;99912.72;;;25.22;56.63
53246;BME280;39569;51.090;-1.786;2023-09-19T13:03:16;99911.22;;;25.59;55.88